Terminal Aerodrome Forecast
Issued by NWS Lubbock, TX

Home | Current Version | Previous Version | Text Only | Print | Product List | Glossary On
Versions: 1 2 3 4 5 6 7 8 9 10 11 12 13 14 15 16 17 18 19 20 21 22 23 24 25 26 27 28 29 30 31 32 33 34
000
FTUS44 KLUB 190200 AAA
TAFLBB
TAF AMD
KLBB 190229Z 1902/1924 13008KT P6SM SCT010 OVC090
      TEMPO 1902/1905 OVC010
     FM190500 11008KT 3SM -SHRA BR OVC006
     FM191800 14010KT 5SM RA BR BKN015=

USA.gov is the U.S. government's official web portal to all federal, state and local government web resources and services.